Methow, Washington
Current Conditions -  °F | °C
As of 5:39 PM on Friday 28 Nov 2014 (Local Time) from KOMK Reporting Station
Freezing Rain Freezing Rain  
Wind Chill: 15°   Ceiling: 2600
Heat Index: 29°   Visibility: 2.5mi
Dew Point: 26°   Wind: 23mph
Humidity: 89%   Direction: 360°N
Pressure: 29.31"   Gusts: 38mph
Location:  48.13°N, 120.01°W
Report Text: KOMK 290139Z AUTO 36020G33KT 2 1/2SM FZRA BR BKN026 OVC033 M02/M03 A2931 RMK AO2 PK WND 36035/0117 UPE00FZRAB00 P0001 I1002 T10171033
Loading
Personal Weather Stations






























Interactive Weather Map New forecast layout! Learn more

10-Day Weather Forecast

Advertisements
Track Severe Weather on mobile